Bera, Spain
Current Conditions -  °F | °C
As of 5:00 PM on Friday 31 Oct 2014 (Local Time) from LESO Reporting Station
Clear Clear  
Wind Chill: 77°   Ceiling: Unl
Heat Index: 78°   Visibility: 6mi
Dew Point: 54°   Wind: 8mph
Humidity: 44%   Direction: 120°ESE
Pressure: 30.06"   Gusts: NA
Location:  43.28°N, 1.69°W
Report Text: LESO 311600Z 12007KT CAVOK 25/12 Q1018
Loading
Personal Weather Stations






























Interactive Weather Map
Tropical Storm Tracking
New forecast layout! Learn more

10-Day Weather Forecast

Advertisements
Track Severe Weather on mobile